BLUO2: Blue River, Blue, OK

                                SHEF ID:       BLUO2     Blue River near Blue, OK
STATION TYPE:
Regulating: Stage = 21.00, Flow = 5001

PRECIP STAGE RIV-FLOW BAT-LOAD
in ft cfs volt
Ccp-Rev Ccp-Rev Ccp-Rev Ccp-Rev
(America/Chicago)
04/30 00:00 0.00 11.89 1395 12.89
04/30 01:00 0.00 11.57 1294 12.89
04/30 02:00 0.00 11.22 1187 12.89
04/30 03:00 0.00 10.88 1088 12.89
04/30 04:00 0.00 10.55 994 12.81
04/30 05:00 0.00 10.23 907 12.81
04/30 06:00 0.00 9.96 836 12.81
04/30 07:00 0.00 9.70 764 12.81
04/30 08:00 0.00 9.48 705 12.89
04/30 09:00 0.00 9.28 653 13.37
04/30 10:00 0.00 9.12 612 13.44
04/30 11:00 0.00 8.96 572 13.68
04/30 12:00 0.00 8.81 535 14.00
04/30 13:00 0.00 8.71 511 14.16
04/30 14:00 0.00 8.60 485 14.16
04/30 15:00 0.00 8.51 465 14.08
04/30 16:00 0.00 8.44 449 14.00
04/30 17:00 0.00 8.35 429 13.84
04/30 18:00 0.00 8.30 418 13.84
04/30 19:00 0.00 8.23 403 13.29
04/30 20:00 0.00 8.17 392 12.97
04/30 21:00 0.02 8.11 380 12.97
04/30 22:00 0.06 8.08 375 12.97
04/30 23:00 ---- ---- ---- ----
Data processed at Fri 01May2026 03:47 GMT

NOTICE: If you are parsing this page

Please convert to using our Data API. Starting early 2026 we will be migrating to: https://water.usace.army.mil with modern pages rendered in JavaScript. When this migration completes you will no longer be able to scrape this page! CWMSDataAPI (CDA)

Timeseries IDs (TSIDs)

TSIDs used from left to right in the data table
BLUE.Precip-Inc.Total.1Hour.1Hour.Ccp-Rev
BLUE.Stage.Inst.1Hour.0.Ccp-Rev
BLUE.Flow.Inst.1Hour.0.Ccp-Rev
BLUE.Volt-Battery Load.Inst.1Hour.0.Ccp-Rev

                            

All information presented herein is the property of the government of the United States of America and may be revised or deleted at any time without prior notice. Dissemination of this information without the expressed written consent of the Public Affairs Office, Tulsa District U.S. Army Corps of Engineers is strictly prohibited. These data are gathered electronically and, as presented, have NOT undergone any form of quality control. These data are NOT guaranteed to be valid or correct.